sensor_id;sensor_type;location;lat;lon;timestamp;pressure;altitude;pressure_sealevel;temperature
72675;BMP280;60752;53.962;9.614;2023-02-26T00:00:30;101537.72;;;0.37
72675;BMP280;60752;53.962;9.614;2023-02-26T00:05:51;101534.00;;;0.40
72675;BMP280;60752;53.962;9.614;2023-02-26T00:11:13;101534.25;;;0.45
72675;BMP280;60752;53.962;9.614;2023-02-26T00:16:35;101540.75;;;0.41
72675;BMP280;60752;53.962;9.614;2023-02-26T00:21:56;101551.75;;;0.49
72675;BMP280;60752;53.962;9.614;2023-02-26T00:27:18;101558.34;;;0.52
72675;BMP280;60752;53.962;9.614;2023-02-26T00:32:40;101563.13;;;0.55
72675;BMP280;60752;53.962;9.614;2023-02-26T00:38:02;101570.53;;;0.58
72675;BMP280;60752;53.962;9.614;2023-02-26T00:43:27;101577.09;;;0.60
72675;BMP280;60752;53.962;9.614;2023-02-26T00:48:54;101600.53;;;0.66
72675;BMP280;60752;53.962;9.614;2023-02-26T00:54:21;101586.88;;;0.65
72675;BMP280;60752;53.962;9.614;2023-02-26T00:59:44;101607.28;;;0.67
72675;BMP280;60752;53.962;9.614;2023-02-26T01:05:06;101611.81;;;0.65
72675;BMP280;60752;53.962;9.614;2023-02-26T01:10:27;101613.59;;;0.64
72675;BMP280;60752;53.962;9.614;2023-02-26T01:15:53;101622.31;;;0.63
72675;BMP280;60752;53.962;9.614;2023-02-26T01:21:18;101623.91;;;0.64
72675;BMP280;60752;53.962;9.614;2023-02-26T01:26:39;101631.78;;;0.63
72675;BMP280;60752;53.962;9.614;2023-02-26T01:32:06;101631.78;;;0.63
72675;BMP280;60752;53.962;9.614;2023-02-26T01:37:33;101632.41;;;0.65
72675;BMP280;60752;53.962;9.614;2023-02-26T01:42:58;101641.91;;;0.64
72675;BMP280;60752;53.962;9.614;2023-02-26T01:48:33;101645.97;;;0.58
72675;BMP280;60752;53.962;9.614;2023-02-26T01:53:55;101654.22;;;0.54
72675;BMP280;60752;53.962;9.614;2023-02-26T01:59:17;101658.75;;;0.52
72675;BMP280;60752;53.962;9.614;2023-02-26T02:04:40;101661.84;;;0.47
72675;BMP280;60752;53.962;9.614;2023-02-26T02:10:02;101669.09;;;0.44
72675;BMP280;60752;53.962;9.614;2023-02-26T02:15:29;101679.38;;;0.44
72675;BMP280;60752;53.962;9.614;2023-02-26T02:21:15;101684.00;;;0.33
72675;BMP280;60752;53.962;9.614;2023-02-26T02:26:58;101692.22;;;0.29
72675;BMP280;60752;53.962;9.614;2023-02-26T02:32:24;101703.22;;;0.23
72675;BMP280;60752;53.962;9.614;2023-02-26T02:37:56;101708.38;;;0.15
72675;BMP280;60752;53.962;9.614;2023-02-26T02:43:21;101713.06;;;0.11
72675;BMP280;60752;53.962;9.614;2023-02-26T02:48:46;101717.91;;;0.06
72675;BMP280;60752;53.962;9.614;2023-02-26T02:54:11;101715.66;;;0.03
72675;BMP280;60752;53.962;9.614;2023-02-26T02:59:36;101721.47;;;-0.03
72675;BMP280;60752;53.962;9.614;2023-02-26T03:05:00;101728.56;;;-0.05
72675;BMP280;60752;53.962;9.614;2023-02-26T03:10:21;101735.16;;;-0.03
72675;BMP280;60752;53.962;9.614;2023-02-26T03:15:48;101733.06;;;-0.07
72675;BMP280;60752;53.962;9.614;2023-02-26T03:21:15;101734.38;;;-0.11
72675;BMP280;60752;53.962;9.614;2023-02-26T03:26:41;101748.53;;;-0.15
72675;BMP280;60752;53.962;9.614;2023-02-26T03:32:04;101759.63;;;-0.15
72675;BMP280;60752;53.962;9.614;2023-02-26T03:37:33;101763.84;;;-0.22
72675;BMP280;60752;53.962;9.614;2023-02-26T03:42:58;101779.25;;;-0.22
72675;BMP280;60752;53.962;9.614;2023-02-26T03:48:24;101800.31;;;-0.27
72675;BMP280;60752;53.962;9.614;2023-02-26T03:53:51;101795.81;;;-0.33
72675;BMP280;60752;53.962;9.614;2023-02-26T03:59:14;101804.03;;;-0.37
72675;BMP280;60752;53.962;9.614;2023-02-26T04:04:39;101807.91;;;-0.41
72675;BMP280;60752;53.962;9.614;2023-02-26T04:10:03;101811.59;;;-0.44
72675;BMP280;60752;53.962;9.614;2023-02-26T04:15:24;101815.28;;;-0.47
72675;BMP280;60752;53.962;9.614;2023-02-26T04:20:45;101821.41;;;-0.48
72675;BMP280;60752;53.962;9.614;2023-02-26T04:26:07;101828.28;;;-0.48
72675;BMP280;60752;53.962;9.614;2023-02-26T04:31:28;101826.22;;;-0.53
72675;BMP280;60752;53.962;9.614;2023-02-26T04:36:48;101845.50;;;-0.57
72675;BMP280;60752;53.962;9.614;2023-02-26T04:42:10;101852.88;;;-0.62
72675;BMP280;60752;53.962;9.614;2023-02-26T04:47:31;101850.63;;;-0.65
72675;BMP280;60752;53.962;9.614;2023-02-26T04:52:52;101867.16;;;-0.67
72675;BMP280;60752;53.962;9.614;2023-02-26T04:58:14;101869.13;;;-0.69
72675;BMP280;60752;53.962;9.614;2023-02-26T05:03:35;101880.50;;;-0.72
72675;BMP280;60752;53.962;9.614;2023-02-26T05:08:56;101885.47;;;-0.79
72675;BMP280;60752;53.962;9.614;2023-02-26T05:14:18;101887.25;;;-0.79
72675;BMP280;60752;53.962;9.614;2023-02-26T05:19:38;101899.13;;;-0.86
72675;BMP280;60752;53.962;9.614;2023-02-26T05:24:59;101906.66;;;-0.93
72675;BMP280;60752;53.962;9.614;2023-02-26T05:30:21;101899.91;;;-0.94
72675;BMP280;60752;53.962;9.614;2023-02-26T05:35:42;101915.63;;;-0.89
72675;BMP280;60752;53.962;9.614;2023-02-26T05:41:03;101918.53;;;-0.92
72675;BMP280;60752;53.962;9.614;2023-02-26T05:46:25;101929.44;;;-0.90
72675;BMP280;60752;53.962;9.614;2023-02-26T05:51:46;101923.03;;;-0.94
72675;BMP280;60752;53.962;9.614;2023-02-26T05:57:07;101933.44;;;-0.95
72675;BMP280;60752;53.962;9.614;2023-02-26T06:02:29;101947.88;;;-0.94
72675;BMP280;60752;53.962;9.614;2023-02-26T06:07:49;101957.50;;;-0.96
72675;BMP280;60752;53.962;9.614;2023-02-26T06:13:10;101955.59;;;-0.94
72675;BMP280;60752;53.962;9.614;2023-02-26T06:18:32;101963.97;;;-0.92
72675;BMP280;60752;53.962;9.614;2023-02-26T06:23:53;101971.84;;;-0.86
72675;BMP280;60752;53.962;9.614;2023-02-26T06:29:14;101987.91;;;-0.84
72675;BMP280;60752;53.962;9.614;2023-02-26T06:34:36;101996.28;;;-0.82
72675;BMP280;60752;53.962;9.614;2023-02-26T06:39:57;102000.59;;;-0.82
72675;BMP280;60752;53.962;9.614;2023-02-26T06:45:18;102012.97;;;-0.78
72675;BMP280;60752;53.962;9.614;2023-02-26T06:50:40;102016.84;;;-0.74
72675;BMP280;60752;53.962;9.614;2023-02-26T06:56:00;102015.75;;;-0.71
72675;BMP280;60752;53.962;9.614;2023-02-26T07:01:21;102037.09;;;-0.70
72675;BMP280;60752;53.962;9.614;2023-02-26T07:06:43;102041.13;;;-0.68
72675;BMP280;60752;53.962;9.614;2023-02-26T07:12:04;102062.78;;;-0.62
72675;BMP280;60752;53.962;9.614;2023-02-26T07:17:25;102064.38;;;-0.61
72675;BMP280;60752;53.962;9.614;2023-02-26T07:22:48;102061.19;;;-0.55
72675;BMP280;60752;53.962;9.614;2023-02-26T07:28:08;102068.66;;;-0.36
72675;BMP280;60752;53.962;9.614;2023-02-26T07:33:29;102075.47;;;-0.02
72675;BMP280;60752;53.962;9.614;2023-02-26T07:38:51;102084.00;;;0.55
72675;BMP280;60752;53.962;9.614;2023-02-26T07:44:12;102087.28;;;1.05
72675;BMP280;60752;53.962;9.614;2023-02-26T07:49:33;102092.28;;;1.46
72675;BMP280;60752;53.962;9.614;2023-02-26T07:54:55;102111.25;;;1.84
72675;BMP280;60752;53.962;9.614;2023-02-26T08:00:17;102123.06;;;2.24
72675;BMP280;60752;53.962;9.614;2023-02-26T08:05:37;102126.97;;;2.58
72675;BMP280;60752;53.962;9.614;2023-02-26T08:11:00;102135.81;;;2.63
72675;BMP280;60752;53.962;9.614;2023-02-26T08:16:20;102136.09;;;2.31
72675;BMP280;60752;53.962;9.614;2023-02-26T08:21:41;102149.75;;;2.16
72675;BMP280;60752;53.962;9.614;2023-02-26T08:27:03;102160.53;;;1.97
72675;BMP280;60752;53.962;9.614;2023-02-26T08:32:24;102169.28;;;2.19
72675;BMP280;60752;53.962;9.614;2023-02-26T08:37:45;102173.69;;;2.33
72675;BMP280;60752;53.962;9.614;2023-02-26T08:43:07;102164.16;;;2.34
72675;BMP280;60752;53.962;9.614;2023-02-26T08:48:27;102182.38;;;2.55
72675;BMP280;60752;53.962;9.614;2023-02-26T08:53:48;102193.06;;;2.90
72675;BMP280;60752;53.962;9.614;2023-02-26T08:59:10;102197.06;;;2.92
72675;BMP280;60752;53.962;9.614;2023-02-26T09:04:31;102201.00;;;3.03
72675;BMP280;60752;53.962;9.614;2023-02-26T09:09:52;102206.00;;;3.19
72675;BMP280;60752;53.962;9.614;2023-02-26T09:15:14;102224.16;;;4.06
72675;BMP280;60752;53.962;9.614;2023-02-26T09:20:35;102228.81;;;4.60
72675;BMP280;60752;53.962;9.614;2023-02-26T09:25:56;102222.78;;;5.09
72675;BMP280;60752;53.962;9.614;2023-02-26T09:31:18;102234.44;;;5.26
72675;BMP280;60752;53.962;9.614;2023-02-26T09:36:39;102244.78;;;5.74
72675;BMP280;60752;53.962;9.614;2023-02-26T09:42:07;102252.69;;;6.20
72675;BMP280;60752;53.962;9.614;2023-02-26T09:47:34;102257.25;;;6.12
72675;BMP280;60752;53.962;9.614;2023-02-26T09:53:01;102260.69;;;6.19
72675;BMP280;60752;53.962;9.614;2023-02-26T09:58:26;102259.47;;;6.28
72675;BMP280;60752;53.962;9.614;2023-02-26T10:04:02;102270.66;;;6.35
72675;BMP280;60752;53.962;9.614;2023-02-26T10:09:36;102278.09;;;6.71
72675;BMP280;60752;53.962;9.614;2023-02-26T10:15:03;102284.50;;;6.55
72675;BMP280;60752;53.962;9.614;2023-02-26T10:20:30;102284.31;;;6.77
72675;BMP280;60752;53.962;9.614;2023-02-26T10:25:54;102287.91;;;6.36
72675;BMP280;60752;53.962;9.614;2023-02-26T10:31:24;102290.47;;;6.16
72675;BMP280;60752;53.962;9.614;2023-02-26T10:36:52;102298.63;;;6.07
72675;BMP280;60752;53.962;9.614;2023-02-26T10:42:19;102305.69;;;6.52
72675;BMP280;60752;53.962;9.614;2023-02-26T10:47:47;102309.31;;;6.91
72675;BMP280;60752;53.962;9.614;2023-02-26T10:53:12;102312.53;;;6.67
72675;BMP280;60752;53.962;9.614;2023-02-26T10:58:32;102317.44;;;5.95
72675;BMP280;60752;53.962;9.614;2023-02-26T11:03:56;102311.81;;;5.44
72675;BMP280;60752;53.962;9.614;2023-02-26T11:09:22;102316.13;;;5.37
72675;BMP280;60752;53.962;9.614;2023-02-26T11:14:46;102315.84;;;5.19
72675;BMP280;60752;53.962;9.614;2023-02-26T11:20:16;102321.56;;;5.14
72675;BMP280;60752;53.962;9.614;2023-02-26T11:25:39;102324.94;;;4.80
72675;BMP280;60752;53.962;9.614;2023-02-26T11:31:05;102332.81;;;4.72
72675;BMP280;60752;53.962;9.614;2023-02-26T11:36:29;102325.50;;;4.75
72675;BMP280;60752;53.962;9.614;2023-02-26T11:41:52;102325.94;;;4.58
72675;BMP280;60752;53.962;9.614;2023-02-26T11:47:18;102332.84;;;4.50
72675;BMP280;60752;53.962;9.614;2023-02-26T11:52:44;102332.88;;;4.36
72675;BMP280;60752;53.962;9.614;2023-02-26T11:58:16;102333.22;;;4.33
72675;BMP280;60752;53.962;9.614;2023-02-26T12:03:39;102333.88;;;4.35
72675;BMP280;60752;53.962;9.614;2023-02-26T12:09:02;102332.19;;;4.27
72675;BMP280;60752;53.962;9.614;2023-02-26T12:14:35;102328.69;;;4.35
72675;BMP280;60752;53.962;9.614;2023-02-26T12:20:07;102323.31;;;4.36
72675;BMP280;60752;53.962;9.614;2023-02-26T12:25:52;102337.59;;;4.32
72675;BMP280;60752;53.962;9.614;2023-02-26T12:31:41;102330.16;;;4.22
72675;BMP280;60752;53.962;9.614;2023-02-26T12:37:19;102327.59;;;4.44
72675;BMP280;60752;53.962;9.614;2023-02-26T12:42:49;102324.06;;;4.51
72675;BMP280;60752;53.962;9.614;2023-02-26T12:48:30;102321.28;;;4.53
72675;BMP280;60752;53.962;9.614;2023-02-26T12:54:05;102329.75;;;4.40
72675;BMP280;60752;53.962;9.614;2023-02-26T13:00:03;102334.75;;;4.42
72675;BMP280;60752;53.962;9.614;2023-02-26T13:05:41;102318.81;;;4.45
72675;BMP280;60752;53.962;9.614;2023-02-26T13:11:15;102317.28;;;4.50
72675;BMP280;60752;53.962;9.614;2023-02-26T13:16:45;102320.09;;;4.56
72675;BMP280;60752;53.962;9.614;2023-02-26T13:22:16;102315.66;;;4.49
72675;BMP280;60752;53.962;9.614;2023-02-26T13:27:38;102320.19;;;4.41
72675;BMP280;60752;53.962;9.614;2023-02-26T13:33:00;102323.03;;;4.31
72675;BMP280;60752;53.962;9.614;2023-02-26T13:38:27;102315.59;;;4.21
72675;BMP280;60752;53.962;9.614;2023-02-26T13:44:05;102326.31;;;4.18
72675;BMP280;60752;53.962;9.614;2023-02-26T13:49:30;102319.16;;;4.20
72675;BMP280;60752;53.962;9.614;2023-02-26T13:54:57;102317.13;;;4.16
72675;BMP280;60752;53.962;9.614;2023-02-26T14:00:25;102312.28;;;4.28
72675;BMP280;60752;53.962;9.614;2023-02-26T14:06:06;102318.59;;;4.40
72675;BMP280;60752;53.962;9.614;2023-02-26T14:11:42;102312.19;;;4.21
72675;BMP280;60752;53.962;9.614;2023-02-26T14:17:29;102311.44;;;4.06
72675;BMP280;60752;53.962;9.614;2023-02-26T14:22:57;102313.03;;;4.07
72675;BMP280;60752;53.962;9.614;2023-02-26T14:28:56;102321.84;;;4.12
72675;BMP280;60752;53.962;9.614;2023-02-26T14:34:20;102325.06;;;4.14
72675;BMP280;60752;53.962;9.614;2023-02-26T14:39:44;102326.16;;;4.05
72675;BMP280;60752;53.962;9.614;2023-02-26T14:45:21;102322.94;;;4.03
72675;BMP280;60752;53.962;9.614;2023-02-26T14:50:50;102320.44;;;4.10
72675;BMP280;60752;53.962;9.614;2023-02-26T14:56:20;102333.47;;;4.02
72675;BMP280;60752;53.962;9.614;2023-02-26T15:01:48;102357.41;;;4.04
72675;BMP280;60752;53.962;9.614;2023-02-26T15:07:27;102360.88;;;3.96
72675;BMP280;60752;53.962;9.614;2023-02-26T15:13:08;102366.88;;;3.96
72675;BMP280;60752;53.962;9.614;2023-02-26T15:18:48;102363.47;;;3.96
72675;BMP280;60752;53.962;9.614;2023-02-26T15:24:12;102360.88;;;3.96
72675;BMP280;60752;53.962;9.614;2023-02-26T15:29:35;102368.47;;;3.97
72675;BMP280;60752;53.962;9.614;2023-02-26T15:34:59;102370.09;;;3.99
72675;BMP280;60752;53.962;9.614;2023-02-26T15:40:21;102367.97;;;3.87
72675;BMP280;60752;53.962;9.614;2023-02-26T15:45:43;102377.78;;;3.77
72675;BMP280;60752;53.962;9.614;2023-02-26T15:51:08;102375.56;;;3.74
72675;BMP280;60752;53.962;9.614;2023-02-26T15:56:33;102375.41;;;3.76
72675;BMP280;60752;53.962;9.614;2023-02-26T16:01:54;102382.53;;;3.74
72675;BMP280;60752;53.962;9.614;2023-02-26T16:07:16;102390.66;;;3.71
72675;BMP280;60752;53.962;9.614;2023-02-26T16:12:39;102392.66;;;3.60
72675;BMP280;60752;53.962;9.614;2023-02-26T16:18:05;102405.16;;;3.57
72675;BMP280;60752;53.962;9.614;2023-02-26T16:23:37;102407.75;;;3.57
72675;BMP280;60752;53.962;9.614;2023-02-26T16:29:01;102405.72;;;3.52
72675;BMP280;60752;53.962;9.614;2023-02-26T16:34:27;102417.19;;;3.50
72675;BMP280;60752;53.962;9.614;2023-02-26T16:39:55;102418.06;;;3.42
72675;BMP280;60752;53.962;9.614;2023-02-26T16:45:21;102417.69;;;3.30
72675;BMP280;60752;53.962;9.614;2023-02-26T16:50:51;102420.59;;;3.27
72675;BMP280;60752;53.962;9.614;2023-02-26T16:56:17;102432.13;;;3.25
72675;BMP280;60752;53.962;9.614;2023-02-26T17:01:40;102434.75;;;3.17
72675;BMP280;60752;53.962;9.614;2023-02-26T17:07:08;102435.56;;;3.17
72675;BMP280;60752;53.962;9.614;2023-02-26T17:12:43;102445.16;;;3.08
72675;BMP280;60752;53.962;9.614;2023-02-26T17:18:04;102445.22;;;3.00
72675;BMP280;60752;53.962;9.614;2023-02-26T17:23:29;102451.72;;;2.88
72675;BMP280;60752;53.962;9.614;2023-02-26T17:28:51;102457.81;;;2.72
72675;BMP280;60752;53.962;9.614;2023-02-26T17:34:12;102471.25;;;2.60
72675;BMP280;60752;53.962;9.614;2023-02-26T17:39:33;102472.44;;;2.49
72675;BMP280;60752;53.962;9.614;2023-02-26T17:44:56;102476.50;;;2.43
72675;BMP280;60752;53.962;9.614;2023-02-26T17:50:39;102486.50;;;2.38
72675;BMP280;60752;53.962;9.614;2023-02-26T17:56:00;102485.22;;;2.26
72675;BMP280;60752;53.962;9.614;2023-02-26T18:01:22;102488.63;;;2.18
72675;BMP280;60752;53.962;9.614;2023-02-26T18:06:44;102498.00;;;2.11
72675;BMP280;60752;53.962;9.614;2023-02-26T18:12:05;102499.13;;;2.00
72675;BMP280;60752;53.962;9.614;2023-02-26T18:17:32;102495.59;;;1.93
72675;BMP280;60752;53.962;9.614;2023-02-26T18:22:53;102500.28;;;1.82
72675;BMP280;60752;53.962;9.614;2023-02-26T18:28:16;102502.69;;;1.67
72675;BMP280;60752;53.962;9.614;2023-02-26T18:33:39;102508.78;;;1.66
72675;BMP280;60752;53.962;9.614;2023-02-26T18:39:00;102498.50;;;1.58
72675;BMP280;60752;53.962;9.614;2023-02-26T18:44:21;102497.19;;;1.46
72675;BMP280;60752;53.962;9.614;2023-02-26T18:49:43;102492.31;;;1.34
72675;BMP280;60752;53.962;9.614;2023-02-26T18:55:05;102495.97;;;1.15
72675;BMP280;60752;53.962;9.614;2023-02-26T19:00:26;102508.34;;;1.04
72675;BMP280;60752;53.962;9.614;2023-02-26T19:05:56;102506.38;;;0.98
72675;BMP280;60752;53.962;9.614;2023-02-26T19:11:17;102499.09;;;0.93
72675;BMP280;60752;53.962;9.614;2023-02-26T19:16:37;102506.97;;;0.83
72675;BMP280;60752;53.962;9.614;2023-02-26T19:21:59;102507.13;;;0.82
72675;BMP280;60752;53.962;9.614;2023-02-26T19:27:20;102510.47;;;0.74
72675;BMP280;60752;53.962;9.614;2023-02-26T19:32:41;102520.34;;;0.61
72675;BMP280;60752;53.962;9.614;2023-02-26T19:38:03;102519.66;;;0.51
72675;BMP280;60752;53.962;9.614;2023-02-26T19:43:24;102518.97;;;0.49
72675;BMP280;60752;53.962;9.614;2023-02-26T19:48:45;102528.72;;;0.37
72675;BMP280;60752;53.962;9.614;2023-02-26T19:54:07;102529.50;;;0.29
72675;BMP280;60752;53.962;9.614;2023-02-26T19:59:28;102518.09;;;0.32
72675;BMP280;60752;53.962;9.614;2023-02-26T20:04:49;102520.53;;;0.33
72675;BMP280;60752;53.962;9.614;2023-02-26T20:10:11;102532.56;;;0.33
72675;BMP280;60752;53.962;9.614;2023-02-26T20:15:32;102537.22;;;0.29
72675;BMP280;60752;53.962;9.614;2023-02-26T20:20:53;102538.63;;;0.24
72675;BMP280;60752;53.962;9.614;2023-02-26T20:26:15;102541.56;;;0.11
72675;BMP280;60752;53.962;9.614;2023-02-26T20:31:36;102553.53;;;0.02
72675;BMP280;60752;53.962;9.614;2023-02-26T20:36:57;102555.31;;;0.02
72675;BMP280;60752;53.962;9.614;2023-02-26T20:42:19;102562.38;;;-0.00
72675;BMP280;60752;53.962;9.614;2023-02-26T20:47:40;102564.34;;;-0.12
72675;BMP280;60752;53.962;9.614;2023-02-26T20:53:00;102571.84;;;-0.18
72675;BMP280;60752;53.962;9.614;2023-02-26T20:58:23;102564.63;;;-0.15
72675;BMP280;60752;53.962;9.614;2023-02-26T21:03:44;102565.31;;;-0.13
72675;BMP280;60752;53.962;9.614;2023-02-26T21:09:05;102572.41;;;-0.25
72675;BMP280;60752;53.962;9.614;2023-02-26T21:14:27;102574.59;;;-0.30
72675;BMP280;60752;53.962;9.614;2023-02-26T21:19:48;102574.59;;;-0.30
72675;BMP280;60752;53.962;9.614;2023-02-26T21:25:09;102580.13;;;-0.25
72675;BMP280;60752;53.962;9.614;2023-02-26T21:30:31;102585.81;;;-0.31
72675;BMP280;60752;53.962;9.614;2023-02-26T21:35:52;102580.44;;;-0.37
72675;BMP280;60752;53.962;9.614;2023-02-26T21:41:13;102584.00;;;-0.48
72675;BMP280;60752;53.962;9.614;2023-02-26T21:46:35;102579.59;;;-0.56
72675;BMP280;60752;53.962;9.614;2023-02-26T21:51:56;102582.47;;;-0.59
72675;BMP280;60752;53.962;9.614;2023-02-26T21:57:17;102590.03;;;-0.57
72675;BMP280;60752;53.962;9.614;2023-02-26T22:02:39;102587.72;;;-0.60
72675;BMP280;60752;53.962;9.614;2023-02-26T22:08:00;102601.31;;;-0.68
72675;BMP280;60752;53.962;9.614;2023-02-26T22:13:20;102603.78;;;-0.76
72675;BMP280;60752;53.962;9.614;2023-02-26T22:18:43;102594.44;;;-0.77
72675;BMP280;60752;53.962;9.614;2023-02-26T22:24:04;102594.72;;;-0.80
72675;BMP280;60752;53.962;9.614;2023-02-26T22:29:25;102602.59;;;-0.82
72675;BMP280;60752;53.962;9.614;2023-02-26T22:34:47;102598.53;;;-0.84
72675;BMP280;60752;53.962;9.614;2023-02-26T22:40:09;102610.31;;;-0.91
72675;BMP280;60752;53.962;9.614;2023-02-26T22:45:31;102607.19;;;-0.95
72675;BMP280;60752;53.962;9.614;2023-02-26T22:50:53;102613.28;;;-0.96
72675;BMP280;60752;53.962;9.614;2023-02-26T22:56:14;102621.94;;;-0.97
72675;BMP280;60752;53.962;9.614;2023-02-26T23:01:34;102621.16;;;-1.07
72675;BMP280;60752;53.962;9.614;2023-02-26T23:06:57;102619.69;;;-1.10
72675;BMP280;60752;53.962;9.614;2023-02-26T23:12:17;102628.34;;;-1.20
72675;BMP280;60752;53.962;9.614;2023-02-26T23:17:38;102631.44;;;-1.27
72675;BMP280;60752;53.962;9.614;2023-02-26T23:23:00;102632.41;;;-1.28
72675;BMP280;60752;53.962;9.614;2023-02-26T23:28:21;102635.22;;;-1.31
72675;BMP280;60752;53.962;9.614;2023-02-26T23:33:42;102639.94;;;-1.36
72675;BMP280;60752;53.962;9.614;2023-02-26T23:39:04;102640.34;;;-1.40
72675;BMP280;60752;53.962;9.614;2023-02-26T23:44:25;102639.81;;;-1.44
72675;BMP280;60752;53.962;9.614;2023-02-26T23:49:46;102640.19;;;-1.48
72675;BMP280;60752;53.962;9.614;2023-02-26T23:55:09;102640.34;;;-1.50
